Time;durP1;ratioP1;P1;durP2;ratioP2;P2;SDS_P1;SDS_P2;PMS_P1;PMS_P2;Temp;Humidity;BMP_temperature;BMP_pressure;BME280_temperature;BME280_humidity;BME280_pressure;Samples;Min_cycle;Max_cycle;Signal;HPM_P1;HPM_P2
2023/06/28 00:01:40;;;;;;;0.20;0.20;;;;;;;;;;5092962;28;20028;-70
2023/06/28 00:04:05;;;;;;;0.73;0.73;;;;;;;;;;5092816;28;20036;-69
2023/06/28 00:06:31;;;;;;;0.20;0.20;;;;;;;;;;5092736;28;20055;-70
2023/06/28 00:08:57;;;;;;;0.30;0.30;;;;;;;;;;5090950;28;20383;-69
2023/06/28 00:11:22;;;;;;;0.30;0.30;;;;;;;;;;5092750;28;20077;-70
2023/06/28 00:13:48;;;;;;;0.22;0.22;;;;;;;;;;5092675;28;20040;-69
2023/06/28 00:16:14;;;;;;;0.20;0.20;;;;;;;;;;5074614;28;20437;-70
2023/06/28 00:18:40;;;;;;;0.30;0.30;;;;;;;;;;5074808;28;20040;-69
2023/06/28 00:21:05;;;;;;;0.43;0.43;;;;;;;;;;5092830;28;20131;-69
2023/06/28 00:23:32;;;;;;;0.30;0.30;;;;;;;;;;5092672;28;20032;-69
2023/06/28 00:25:58;;;;;;;2.10;1.20;;;;;;;;;;5092538;28;20471;-69
2023/06/28 00:28:23;;;;;;;1.48;1.38;;;;;;;;;;5092441;28;20024;-68
2023/06/28 00:30:48;;;;;;;5.18;1.98;;;;;;;;;;5092457;28;20491;-68
2023/06/28 00:33:19;;;;;;;0.30;0.30;;;;;;;;;;5092397;28;20047;-69
2023/06/28 00:35:45;;;;;;;0.55;0.52;;;;;;;;;;5074331;28;20064;-69
2023/06/28 00:38:11;;;;;;;0.30;0.30;;;;;;;;;;5092521;28;20048;-69
2023/06/28 00:40:36;;;;;;;0.32;0.32;;;;;;;;;;5074336;28;20127;-68
2023/06/28 00:43:03;;;;;;;0.25;0.25;;;;;;;;;;5092696;28;20028;-70
2023/06/28 00:45:28;;;;;;;0.20;0.20;;;;;;;;;;5091422;28;20176;-69
2023/06/28 00:47:54;;;;;;;0.20;0.20;;;;;;;;;;5092451;28;20471;-70
2023/06/28 00:50:20;;;;;;;0.20;0.20;;;;;;;;;;5072344;28;20457;-70
2023/06/28 00:52:46;;;;;;;0.20;0.20;;;;;;;;;;5053791;28;20036;-70
2023/06/28 00:55:11;;;;;;;0.22;0.22;;;;;;;;;;5074220;28;20411;-69
2023/06/28 00:57:37;;;;;;;0.30;0.30;;;;;;;;;;5073848;28;20364;-69
2023/06/28 01:00:08;;;;;;;0.20;0.20;;;;;;;;;;5092072;28;20036;-69
2023/06/28 01:02:33;;;;;;;0.52;0.52;;;;;;;;;;5073089;28;20028;-69
2023/06/28 01:04:59;;;;;;;1.35;0.95;;;;;;;;;;5071684;28;20115;-69
2023/06/28 01:07:28;;;;;;;0.20;0.20;;;;;;;;;;5092045;28;20403;-69
2023/06/28 01:09:56;;;;;;;0.32;0.32;;;;;;;;;;5074135;28;20032;-69
2023/06/28 01:12:22;;;;;;;1.58;1.48;;;;;;;;;;5073809;28;20032;-69
2023/06/28 01:14:47;;;;;;;0.20;0.20;;;;;;;;;;5091649;28;20524;-70
2023/06/28 01:17:12;;;;;;;0.40;0.40;;;;;;;;;;5092020;28;20435;-69
2023/06/28 01:19:39;;;;;;;0.88;0.88;;;;;;;;;;5093849;28;20448;-70
2023/06/28 01:22:06;;;;;;;1.08;1.08;;;;;;;;;;5095361;28;20094;-70
2023/06/28 01:24:32;;;;;;;1.08;1.08;;;;;;;;;;5095607;28;20028;-69
2023/06/28 01:26:58;;;;;;;0.52;0.52;;;;;;;;;;5077265;28;20047;-69
2023/06/28 01:29:24;;;;;;;0.20;0.20;;;;;;;;;;5094960;28;20023;-70
2023/06/28 01:31:51;;;;;;;0.55;0.55;;;;;;;;;;5095229;28;20040;-69
2023/06/28 01:34:16;;;;;;;1.63;1.50;;;;;;;;;;5095048;28;20063;-69
2023/06/28 01:36:42;;;;;;;0.28;0.28;;;;;;;;;;5076819;28;20065;-69
2023/06/28 01:39:08;;;;;;;0.20;0.20;;;;;;;;;;5095285;28;20158;-69
2023/06/28 01:41:33;;;;;;;0.20;0.20;;;;;;;;;;5095989;28;20032;-70
2023/06/28 01:43:59;;;;;;;0.30;0.30;;;;;;;;;;5096924;28;20028;-70
2023/06/28 01:46:25;;;;;;;0.20;0.20;;;;;;;;;;5095578;28;20475;-69
2023/06/28 01:48:50;;;;;;;2.65;2.55;;;;;;;;;;5077118;28;20502;-69
2023/06/28 01:51:16;;;;;;;3.80;3.05;;;;;;;;;;5076829;28;20071;-70
2023/06/28 01:53:42;;;;;;;0.20;0.20;;;;;;;;;;5095068;28;20036;-69
2023/06/28 01:56:07;;;;;;;0.30;0.30;;;;;;;;;;5076780;28;20071;-69
2023/06/28 01:58:32;;;;;;;0.20;0.20;;;;;;;;;;5076555;28;20040;-69
2023/06/28 02:00:58;;;;;;;0.20;0.20;;;;;;;;;;5076598;28;20038;-70
2023/06/28 02:03:23;;;;;;;0.57;0.57;;;;;;;;;;5094715;28;20036;-70
2023/06/28 02:05:49;;;;;;;0.20;0.20;;;;;;;;;;5094605;28;20028;-69
2023/06/28 02:08:14;;;;;;;0.20;0.20;;;;;;;;;;5076641;28;20044;-70
2023/06/28 02:10:39;;;;;;;0.20;0.20;;;;;;;;;;5094581;28;20028;-70
2023/06/28 02:13:05;;;;;;;0.20;0.20;;;;;;;;;;5076331;28;20044;-69
2023/06/28 02:15:31;;;;;;;0.20;0.20;;;;;;;;;;5094392;28;20043;-70
2023/06/28 02:17:58;;;;;;;0.38;0.38;;;;;;;;;;5094618;28;20497;-69
2023/06/28 02:20:24;;;;;;;0.25;0.25;;;;;;;;;;5076414;28;20483;-70
2023/06/28 02:22:49;;;;;;;0.20;0.20;;;;;;;;;;5094561;28;20031;-70
2023/06/28 02:25:14;;;;;;;0.20;0.20;;;;;;;;;;5076301;28;20124;-69
2023/06/28 02:27:40;;;;;;;0.10;0.10;;;;;;;;;;5093872;28;20601;-71
2023/06/28 02:30:06;;;;;;;0.30;0.30;;;;;;;;;;5093568;28;20036;-70
2023/06/28 02:32:33;;;;;;;0.30;0.30;;;;;;;;;;5075668;28;20097;-70
2023/06/28 02:34:58;;;;;;;0.20;0.20;;;;;;;;;;5076091;28;20028;-70
2023/06/28 02:37:24;;;;;;;0.20;0.20;;;;;;;;;;5076126;28;20039;-70
2023/06/28 02:39:49;;;;;;;0.20;0.20;;;;;;;;;;5094218;28;20028;-70
2023/06/28 02:42:15;;;;;;;0.20;0.20;;;;;;;;;;5094352;28;20046;-70
2023/06/28 02:44:41;;;;;;;0.20;0.20;;;;;;;;;;5094129;28;20059;-70
2023/06/28 02:47:06;;;;;;;0.20;0.20;;;;;;;;;;5075978;28;20063;-70
2023/06/28 02:49:33;;;;;;;0.20;0.20;;;;;;;;;;5075927;28;20061;-69
2023/06/28 02:51:58;;;;;;;0.20;0.20;;;;;;;;;;5075842;28;20440;-71
2023/06/28 02:54:24;;;;;;;0.20;0.20;;;;;;;;;;5058590;28;20032;-70
2023/06/28 02:56:49;;;;;;;0.20;0.20;;;;;;;;;;5075857;28;20126;-70
2023/06/28 02:59:14;;;;;;;0.20;0.20;;;;;;;;;;5093620;28;20036;-70
2023/06/28 03:01:41;;;;;;;3.53;3.20;;;;;;;;;;5074596;28;20024;-69
2023/06/28 03:04:07;;;;;;;0.20;0.20;;;;;;;;;;5088912;28;20402;-69
2023/06/28 03:06:34;;;;;;;0.45;0.45;;;;;;;;;;5071186;28;20032;-70
2023/06/28 03:09:00;;;;;;;0.30;0.30;;;;;;;;;;5089604;28;20028;-69
2023/06/28 03:11:25;;;;;;;0.20;0.20;;;;;;;;;;5071004;28;20089;-71
2023/06/28 03:13:51;;;;;;;0.20;0.20;;;;;;;;;;5071196;28;20040;-72
2023/06/28 03:16:16;;;;;;;0.20;0.20;;;;;;;;;;5054273;28;20020;-70
2023/06/28 03:18:43;;;;;;;1.10;1.05;;;;;;;;;;5054516;28;20074;-70
2023/06/28 03:21:08;;;;;;;0.30;0.30;;;;;;;;;;5089244;28;20059;-72
2023/06/28 03:23:34;;;;;;;0.20;0.20;;;;;;;;;;5071182;28;20032;-69
2023/06/28 03:25:59;;;;;;;0.20;0.20;;;;;;;;;;5089162;28;20114;-71
2023/06/28 03:28:25;;;;;;;0.20;0.20;;;;;;;;;;5069543;28;20038;-70
2023/06/28 03:30:51;;;;;;;0.82;0.82;;;;;;;;;;5088665;28;20035;-70
2023/06/28 03:33:16;;;;;;;1.17;1.17;;;;;;;;;;5094237;28;20130;-70
2023/06/28 03:35:42;;;;;;;0.20;0.20;;;;;;;;;;5072184;28;20474;-70
2023/06/28 03:38:08;;;;;;;0.20;0.20;;;;;;;;;;5070861;28;20075;-72
2023/06/28 03:40:33;;;;;;;0.20;0.20;;;;;;;;;;5089484;28;20039;-70
2023/06/28 03:42:59;;;;;;;0.17;0.17;;;;;;;;;;5090436;28;20039;-70
2023/06/28 03:45:24;;;;;;;0.20;0.20;;;;;;;;;;5062431;28;20124;-70
2023/06/28 03:47:50;;;;;;;0.20;0.20;;;;;;;;;;5065795;28;20043;-69
2023/06/28 03:50:15;;;;;;;0.47;0.47;;;;;;;;;;5070756;28;20074;-74
2023/06/28 03:52:41;;;;;;;1.48;1.38;;;;;;;;;;5089188;28;20032;-73
2023/06/28 03:55:06;;;;;;;0.20;0.20;;;;;;;;;;5088981;28;20065;-72
2023/06/28 03:57:32;;;;;;;0.20;0.20;;;;;;;;;;5087230;28;20031;-73
2023/06/28 03:59:58;;;;;;;0.10;0.10;;;;;;;;;;5058172;28;20567;-73
2023/06/28 04:02:24;;;;;;;0.20;0.20;;;;;;;;;;5087667;28;20028;-73
2023/06/28 04:04:49;;;;;;;0.20;0.20;;;;;;;;;;5079840;28;20348;-72
2023/06/28 04:07:15;;;;;;;0.20;0.20;;;;;;;;;;5068783;28;20305;-73
2023/06/28 04:09:41;;;;;;;0.20;0.20;;;;;;;;;;5092806;28;20076;-73
2023/06/28 04:12:07;;;;;;;0.30;0.30;;;;;;;;;;5070494;28;20024;-73
2023/06/28 04:14:33;;;;;;;0.20;0.20;;;;;;;;;;5088524;28;20696;-73
2023/06/28 04:16:58;;;;;;;0.20;0.20;;;;;;;;;;5087942;28;20375;-72
2023/06/28 04:19:23;;;;;;;0.22;0.22;;;;;;;;;;5087906;28;20056;-72
2023/06/28 04:21:49;;;;;;;0.20;0.20;;;;;;;;;;5088726;28;20111;-72
2023/06/28 04:24:14;;;;;;;0.20;0.20;;;;;;;;;;5088929;28;20032;-74
2023/06/28 04:26:40;;;;;;;0.20;0.20;;;;;;;;;;5088114;28;20078;-72
2023/06/28 04:29:05;;;;;;;17.65;6.03;;;;;;;;;;5088351;28;20433;-73
2023/06/28 04:31:31;;;;;;;9.52;7.00;;;;;;;;;;5088690;28;20487;-73
2023/06/28 04:33:57;;;;;;;0.20;0.20;;;;;;;;;;5088619;28;20072;-73
2023/06/28 04:36:23;;;;;;;0.20;0.20;;;;;;;;;;5088319;28;20382;-73
2023/06/28 04:38:52;;;;;;;0.20;0.20;;;;;;;;;;5088492;28;20389;-73
2023/06/28 04:41:26;;;;;;;0.20;0.20;;;;;;;;;;5087749;28;20057;-73
2023/06/28 04:43:55;;;;;;;5.68;5.28;;;;;;;;;;5087587;28;20040;-73
2023/06/28 04:46:22;;;;;;;0.30;0.30;;;;;;;;;;5077042;28;20065;-73
2023/06/28 04:48:48;;;;;;;0.20;0.20;;;;;;;;;;5088294;28;20040;-73
2023/06/28 04:51:14;;;;;;;0.20;0.20;;;;;;;;;;5087231;28;20032;-73
2023/06/28 04:53:39;;;;;;;0.60;0.60;;;;;;;;;;5087973;28;20066;-72
2023/06/28 04:56:05;;;;;;;0.28;0.28;;;;;;;;;;5091785;28;20112;-72
2023/06/28 04:58:31;;;;;;;0.22;0.22;;;;;;;;;;5090982;28;20418;-72
2023/06/28 05:00:56;;;;;;;0.95;0.93;;;;;;;;;;5091808;28;20043;-71
2023/06/28 05:03:27;;;;;;;0.20;0.20;;;;;;;;;;5095832;28;20359;-72
2023/06/28 05:05:54;;;;;;;0.22;0.22;;;;;;;;;;5090827;28;20061;-72
2023/06/28 05:08:19;;;;;;;0.20;0.20;;;;;;;;;;5090300;28;20433;-71
2023/06/28 05:10:45;;;;;;;0.20;0.20;;;;;;;;;;5092757;28;20028;-72
2023/06/28 05:13:10;;;;;;;0.20;0.20;;;;;;;;;;5099086;28;20043;-72
2023/06/28 05:15:36;;;;;;;1.48;1.38;;;;;;;;;;5091285;28;20391;-72
2023/06/28 05:18:01;;;;;;;0.20;0.20;;;;;;;;;;5091191;28;20070;-72
2023/06/28 05:20:28;;;;;;;0.20;0.20;;;;;;;;;;5091190;28;20375;-71
2023/06/28 05:23:07;;;;;;;0.20;0.20;;;;;;;;;;5091486;28;20036;-70
2023/06/28 05:25:33;;;;;;;0.57;0.57;;;;;;;;;;5091040;28;20112;-71
2023/06/28 05:27:58;;;;;;;0.20;0.20;;;;;;;;;;5091044;28;20060;-71
2023/06/28 05:30:24;;;;;;;0.20;0.20;;;;;;;;;;5091241;28;20495;-71
2023/06/28 05:32:49;;;;;;;0.20;0.20;;;;;;;;;;5091427;28;20538;-74
2023/06/28 05:35:15;;;;;;;0.57;0.57;;;;;;;;;;5101997;28;20032;-73
2023/06/28 05:37:41;;;;;;;0.20;0.20;;;;;;;;;;5091066;28;20492;-72
2023/06/28 05:40:08;;;;;;;0.77;0.77;;;;;;;;;;5091023;28;20055;-71
2023/06/28 05:42:33;;;;;;;0.88;0.82;;;;;;;;;;5090910;28;20030;-72
2023/06/28 05:44:58;;;;;;;0.40;0.40;;;;;;;;;;5091150;28;20107;-73
2023/06/28 05:47:24;;;;;;;0.20;0.20;;;;;;;;;;5090900;28;20438;-73
2023/06/28 05:49:49;;;;;;;0.40;0.40;;;;;;;;;;5090929;28;20116;-72
2023/06/28 05:52:15;;;;;;;0.30;0.30;;;;;;;;;;5090341;28;20038;-72
2023/06/28 05:54:40;;;;;;;1.27;1.15;;;;;;;;;;5072490;28;20386;-71
2023/06/28 05:57:06;;;;;;;0.75;0.75;;;;;;;;;;5090694;28;20508;-72
2023/06/28 05:59:31;;;;;;;0.30;0.30;;;;;;;;;;5089884;28;20065;-73
2023/06/28 06:01:56;;;;;;;0.75;0.75;;;;;;;;;;5090528;28;20032;-73
2023/06/28 06:04:22;;;;;;;0.95;0.93;;;;;;;;;;5090149;28;20058;-74
2023/06/28 06:06:47;;;;;;;1.02;0.93;;;;;;;;;;5090032;28;20036;-73
2023/06/28 06:09:13;;;;;;;0.40;0.40;;;;;;;;;;5098524;28;20093;-75
2023/06/28 06:11:38;;;;;;;0.20;0.20;;;;;;;;;;5088604;28;20040;-72
2023/06/28 06:14:04;;;;;;;0.40;0.40;;;;;;;;;;5088316;28;20470;-73
2023/06/28 06:16:29;;;;;;;0.40;0.40;;;;;;;;;;5088520;28;20028;-73
2023/06/28 06:18:55;;;;;;;0.30;0.30;;;;;;;;;;5088547;28;20085;-73
2023/06/28 06:21:20;;;;;;;0.88;0.88;;;;;;;;;;5088458;28;20360;-72
2023/06/28 06:23:46;;;;;;;0.30;0.30;;;;;;;;;;5088313;28;20047;-74
2023/06/28 06:26:11;;;;;;;0.20;0.20;;;;;;;;;;5088028;28;20035;-72
2023/06/28 06:28:37;;;;;;;0.28;0.28;;;;;;;;;;5078887;28;20398;-73
2023/06/28 06:31:02;;;;;;;0.30;0.30;;;;;;;;;;5068127;28;20033;-73
2023/06/28 06:33:28;;;;;;;0.55;0.55;;;;;;;;;;5075545;28;20075;-73
2023/06/28 06:35:54;;;;;;;0.90;0.90;;;;;;;;;;5078350;28;20012;-72
2023/06/28 06:38:19;;;;;;;0.25;0.25;;;;;;;;;;5076763;28;20110;-73
2023/06/28 06:40:45;;;;;;;0.30;0.30;;;;;;;;;;5084967;28;20016;-73
2023/06/28 06:43:10;;;;;;;0.20;0.20;;;;;;;;;;5088897;28;21431;-73
2023/06/28 06:45:35;;;;;;;0.40;0.40;;;;;;;;;;5088359;28;20024;-75
2023/06/28 06:48:01;;;;;;;0.30;0.30;;;;;;;;;;5090694;28;20067;-73
2023/06/28 06:50:26;;;;;;;0.55;0.47;;;;;;;;;;5086927;28;20486;-74
2023/06/28 06:52:52;;;;;;;0.43;0.43;;;;;;;;;;5070274;28;20863;-73
2023/06/28 06:55:17;;;;;;;0.20;0.20;;;;;;;;;;5085252;28;20082;-77
2023/06/28 06:57:43;;;;;;;0.50;0.50;;;;;;;;;;5089813;28;20028;-74
2023/06/28 07:00:09;;;;;;;0.40;0.40;;;;;;;;;;5070002;28;20437;-75
2023/06/28 07:02:34;;;;;;;2.20;1.75;;;;;;;;;;5086011;28;20429;-73
2023/06/28 07:05:00;;;;;;;0.50;0.50;;;;;;;;;;5089745;28;20028;-73
2023/06/28 07:07:25;;;;;;;0.47;0.47;;;;;;;;;;5088306;28;20068;-74
2023/06/28 07:09:51;;;;;;;0.40;0.40;;;;;;;;;;5077543;28;20085;-73
2023/06/28 07:12:16;;;;;;;0.65;0.65;;;;;;;;;;5089282;28;20387;-72
2023/06/28 07:14:42;;;;;;;0.22;0.22;;;;;;;;;;5081916;28;20030;-72
2023/06/28 07:17:07;;;;;;;0.73;0.73;;;;;;;;;;5051097;28;20123;-72
2023/06/28 07:19:33;;;;;;;0.40;0.40;;;;;;;;;;5077279;28;20036;-73
2023/06/28 07:21:58;;;;;;;0.30;0.30;;;;;;;;;;5078228;28;20917;-73
2023/06/28 07:24:24;;;;;;;0.47;0.47;;;;;;;;;;5089091;28;20036;-72
2023/06/28 07:26:49;;;;;;;0.70;0.70;;;;;;;;;;5087158;28;20040;-73
2023/06/28 07:29:15;;;;;;;1.05;0.73;;;;;;;;;;5086493;28;20032;-72
2023/06/28 07:31:40;;;;;;;0.57;0.57;;;;;;;;;;5074128;28;20028;-72
2023/06/28 07:34:06;;;;;;;0.40;0.40;;;;;;;;;;5069030;28;20319;-72
2023/06/28 07:36:31;;;;;;;0.30;0.30;;;;;;;;;;5072646;28;20527;-72
2023/06/28 07:38:57;;;;;;;1.95;1.48;;;;;;;;;;5088327;28;20454;-70
2023/06/28 07:41:23;;;;;;;0.40;0.40;;;;;;;;;;5054390;28;20089;-71
2023/06/28 07:43:49;;;;;;;1.08;0.98;;;;;;;;;;5089270;28;20123;-68
2023/06/28 07:46:15;;;;;;;0.82;0.82;;;;;;;;;;5088890;28;20028;-68
2023/06/28 07:48:40;;;;;;;16.70;10.65;;;;;;;;;;5089234;28;20039;-68
2023/06/28 07:51:05;;;;;;;1.20;1.05;;;;;;;;;;5089088;28;20490;-67
2023/06/28 07:53:31;;;;;;;1.85;1.60;;;;;;;;;;5089091;28;20048;-70
2023/06/28 07:55:56;;;;;;;1.45;1.35;;;;;;;;;;5070743;28;20419;-69
2023/06/28 07:58:22;;;;;;;0.40;0.40;;;;;;;;;;5088750;28;20131;-69
2023/06/28 08:00:47;;;;;;;0.55;0.45;;;;;;;;;;5088964;28;20391;-68
2023/06/28 08:03:13;;;;;;;0.70;0.70;;;;;;;;;;5089564;28;20455;-67
2023/06/28 08:05:38;;;;;;;0.63;0.60;;;;;;;;;;5088341;28;20028;-68
2023/06/28 08:08:03;;;;;;;0.70;0.65;;;;;;;;;;5088748;28;20459;-68
2023/06/28 08:10:29;;;;;;;2.67;1.85;;;;;;;;;;5088353;28;20028;-68
2023/06/28 08:12:55;;;;;;;2.40;1.88;;;;;;;;;;5088428;28;20028;-70
2023/06/28 08:15:20;;;;;;;3.90;1.25;;;;;;;;;;5089254;28;20024;-69
2023/06/28 08:17:46;;;;;;;2.80;1.38;;;;;;;;;;5088827;28;20043;-70
2023/06/28 08:20:11;;;;;;;0.57;0.57;;;;;;;;;;5070448;28;20115;-69
2023/06/28 08:22:37;;;;;;;0.90;0.50;;;;;;;;;;5088081;28;20035;-69
2023/06/28 08:25:03;;;;;;;0.65;0.63;;;;;;;;;;5088787;28;20028;-70
2023/06/28 08:27:28;;;;;;;0.30;0.30;;;;;;;;;;5088243;28;20040;-70
2023/06/28 08:29:54;;;;;;;4.22;2.80;;;;;;;;;;5091254;28;20031;-69
2023/06/28 08:32:19;;;;;;;1.05;0.95;;;;;;;;;;5073523;28;20055;-69
2023/06/28 08:34:46;;;;;;;0.65;0.60;;;;;;;;;;5092016;28;20040;-70
2023/06/28 08:37:12;;;;;;;0.93;0.75;;;;;;;;;;5092062;28;20421;-68
2023/06/28 08:39:37;;;;;;;0.55;0.55;;;;;;;;;;5091701;28;20050;-69
2023/06/28 08:42:03;;;;;;;2.05;1.92;;;;;;;;;;5074086;28;20126;-69
2023/06/28 08:44:30;;;;;;;2.70;1.25;;;;;;;;;;5091405;28;20028;-71
2023/06/28 08:46:55;;;;;;;0.63;0.57;;;;;;;;;;5092256;28;20258;-69
2023/06/28 08:49:21;;;;;;;1.08;0.82;;;;;;;;;;5092069;28;20032;-68
2023/06/28 08:51:46;;;;;;;0.70;0.70;;;;;;;;;;5091656;28;20035;-68
2023/06/28 08:54:13;;;;;;;0.40;0.40;;;;;;;;;;5091665;28;20123;-69
2023/06/28 08:56:39;;;;;;;1.15;1.15;;;;;;;;;;5098863;28;20474;-68
2023/06/28 08:59:05;;;;;;;0.80;0.65;;;;;;;;;;5091648;28;20046;-69
2023/06/28 09:01:31;;;;;;;1.15;0.93;;;;;;;;;;5090988;28;20051;-70
2023/06/28 09:03:57;;;;;;;0.40;0.40;;;;;;;;;;5092427;28;20063;-70
2023/06/28 09:06:22;;;;;;;0.60;0.60;;;;;;;;;;5092973;28;20045;-69
2023/06/28 09:08:48;;;;;;;1.92;1.33;;;;;;;;;;5091379;28;20036;-72
2023/06/28 09:11:15;;;;;;;1.25;1.15;;;;;;;;;;5073312;28;20028;-72
2023/06/28 09:13:41;;;;;;;1.73;1.17;;;;;;;;;;5091372;28;20098;-69
2023/06/28 09:16:10;;;;;;;2.63;1.75;;;;;;;;;;5091196;28;20056;-69
2023/06/28 09:18:35;;;;;;;;;;;;;;;;;;5090465;28;20032;-70
2023/06/28 09:21:01;;;;;;;0.50;0.50;;;;;;;;;;5089937;28;19916;-70
2023/06/28 09:23:27;;;;;;;0.60;0.60;;;;;;;;;;5089943;28;20596;-70
2023/06/28 09:25:52;;;;;;;0.75;0.75;;;;;;;;;;5089092;28;20036;-69
2023/06/28 09:28:19;;;;;;;2.67;1.48;;;;;;;;;;5090561;28;20039;-71
2023/06/28 09:30:54;;;;;;;0.65;0.65;;;;;;;;;;5091119;28;20036;-72
2023/06/28 09:33:19;;;;;;;4.50;1.58;;;;;;;;;;5072926;28;20115;-69
2023/06/28 09:35:45;;;;;;;1.88;1.75;;;;;;;;;;5090945;28;20116;-68
2023/06/28 09:38:10;;;;;;;1.50;1.40;;;;;;;;;;5093228;28;20024;-69
2023/06/28 09:40:35;;;;;;;0.45;0.45;;;;;;;;;;5090282;28;20032;-68
2023/06/28 09:43:01;;;;;;;0.90;0.80;;;;;;;;;;5091161;28;20032;-68
2023/06/28 09:45:29;;;;;;;0.43;0.43;;;;;;;;;;5090870;28;20114;-69
2023/06/28 09:47:58;;;;;;;2.20;1.15;;;;;;;;;;5068257;28;20079;-68
2023/06/28 09:50:42;;;;;;;0.55;0.55;;;;;;;;;;5070304;28;20446;-68
2023/06/28 09:53:13;;;;;;;1.30;1.20;;;;;;;;;;5089304;28;20040;-68
2023/06/28 09:55:39;;;;;;;1.25;0.93;;;;;;;;;;5097562;28;20111;-68
2023/06/28 09:58:14;;;;;;;2.70;1.40;;;;;;;;;;5094992;28;20115;-67
2023/06/28 10:00:40;;;;;;;1.10;0.98;;;;;;;;;;5090622;28;20513;-68
2023/06/28 10:03:07;;;;;;;1.02;0.93;;;;;;;;;;5090645;28;20418;-67
2023/06/28 10:05:34;;;;;;;8.52;4.43;;;;;;;;;;5089347;28;20039;-68
2023/06/28 10:08:00;;;;;;;0.70;0.70;;;;;;;;;;5095690;28;20478;-69
2023/06/28 10:10:26;;;;;;;5.18;1.77;;;;;;;;;;5090177;28;20036;-71
2023/06/28 10:12:52;;;;;;;2.03;1.83;;;;;;;;;;5090594;28;20024;-69
2023/06/28 10:15:21;;;;;;;1.15;1.00;;;;;;;;;;5072439;28;20051;-70
2023/06/28 10:17:47;;;;;;;1.10;1.00;;;;;;;;;;5071562;28;20040;-70
2023/06/28 10:20:12;;;;;;;4.65;1.13;;;;;;;;;;5070225;28;20494;-69
2023/06/28 10:22:39;;;;;;;3.83;1.33;;;;;;;;;;5071710;28;20040;-67
2023/06/28 10:25:05;;;;;;;3.63;1.00;;;;;;;;;;5070213;28;20028;-69
2023/06/28 10:27:33;;;;;;;1.85;0.90;;;;;;;;;;5069810;28;20056;-68
2023/06/28 10:29:59;;;;;;;1.45;1.20;;;;;;;;;;5070268;28;20299;-69
2023/06/28 10:32:25;;;;;;;2.65;2.45;;;;;;;;;;5084810;28;20118;-71
2023/06/28 10:34:51;;;;;;;5.28;2.03;;;;;;;;;;5084215;28;20089;-69
2023/06/28 10:37:20;;;;;;;4.47;1.20;;;;;;;;;;5072966;28;20055;-69
2023/06/28 10:39:46;;;;;;;2.95;1.27;;;;;;;;;;5069726;28;20032;-69
2023/06/28 10:42:11;;;;;;;1.67;1.10;;;;;;;;;;5070064;28;20028;-71
2023/06/28 10:45:00;;;;;;;0.90;0.85;;;;;;;;;;5069530;28;20066;-71
2023/06/28 10:47:25;;;;;;;2.20;1.77;;;;;;;;;;5069600;28;20045;-69
2023/06/28 10:50:10;;;;;;;0.82;0.77;;;;;;;;;;5069699;28;20035;-69
2023/06/28 10:52:44;;;;;;;0.40;0.40;;;;;;;;;;5068633;28;20032;-69
2023/06/28 10:55:11;;;;;;;1.65;0.60;;;;;;;;;;5072422;28;20117;-68
2023/06/28 10:57:37;;;;;;;0.75;0.75;;;;;;;;;;5089647;28;20046;-68
2023/06/28 11:00:09;;;;;;;0.70;0.70;;;;;;;;;;5089697;28;20024;-70
2023/06/28 11:02:56;;;;;;;0.77;0.60;;;;;;;;;;5089535;28;20071;-67
2023/06/28 11:05:41;;;;;;;3.00;2.03;;;;;;;;;;5086369;28;20482;-69
2023/06/28 11:08:07;;;;;;;1.58;0.90;;;;;;;;;;5089121;28;20388;-70
2023/06/28 11:10:40;;;;;;;0.50;0.50;;;;;;;;;;5088707;28;20024;-69
2023/06/28 11:13:12;;;;;;;0.52;0.52;;;;;;;;;;5086426;28;20086;-68
2023/06/28 11:15:42;;;;;;;0.50;0.50;;;;;;;;;;5094768;28;20040;-69
2023/06/28 11:18:18;;;;;;;1.27;0.80;;;;;;;;;;5090545;28;20035;-69
2023/06/28 11:21:04;;;;;;;1.08;0.73;;;;;;;;;;5084796;28;20031;-72
2023/06/28 11:23:36;;;;;;;1.33;1.13;;;;;;;;;;5093559;28;20044;-70
2023/06/28 11:26:03;;;;;;;0.50;0.50;;;;;;;;;;5087098;28;20276;-69
2023/06/28 11:28:30;;;;;;;1.30;1.05;;;;;;;;;;5053879;28;20440;-71
2023/06/28 11:30:56;;;;;;;1.10;0.73;;;;;;;;;;5088580;28;20028;-69
2023/06/28 11:33:24;;;;;;;0.40;0.40;;;;;;;;;;5087072;28;20264;-69
2023/06/28 11:35:50;;;;;;;0.40;0.40;;;;;;;;;;5087421;28;20043;-70
2023/06/28 11:38:16;;;;;;;0.30;0.30;;;;;;;;;;5069667;28;20067;-69
2023/06/28 11:40:42;;;;;;;1.52;0.85;;;;;;;;;;5085384;28;20102;-69
2023/06/28 11:43:07;;;;;;;0.60;0.60;;;;;;;;;;5087952;28;20434;-69
2023/06/28 11:45:33;;;;;;;0.30;0.30;;;;;;;;;;5087310;28;20059;-69
2023/06/28 11:48:00;;;;;;;0.68;0.68;;;;;;;;;;5087323;28;20806;-70
2023/06/28 11:50:27;;;;;;;0.50;0.50;;;;;;;;;;5086045;28;20038;-73
2023/06/28 11:52:52;;;;;;;1.63;0.68;;;;;;;;;;5086360;28;20032;-70
2023/06/28 11:55:18;;;;;;;1.55;1.15;;;;;;;;;;5084338;28;20040;-69
2023/06/28 11:57:46;;;;;;;2.45;0.90;;;;;;;;;;5088967;28;20024;-70
2023/06/28 12:00:13;;;;;;;1.08;0.88;;;;;;;;;;5086496;28;20032;-69
2023/06/28 12:02:51;;;;;;;0.47;0.47;;;;;;;;;;5067486;28;20027;-70
2023/06/28 12:05:17;;;;;;;2.57;1.03;;;;;;;;;;5093439;28;20050;-69
2023/06/28 12:07:46;;;;;;;1.15;0.88;;;;;;;;;;5079415;28;20289;-69
2023/06/28 12:10:12;;;;;;;0.43;0.43;;;;;;;;;;5096591;28;20028;-69
2023/06/28 12:12:41;;;;;;;1.20;0.80;;;;;;;;;;5097175;28;20457;-69
2023/06/28 12:15:11;;;;;;;0.95;0.88;;;;;;;;;;5091840;28;20032;-69
2023/06/28 12:17:37;;;;;;;0.82;0.82;;;;;;;;;;5097627;28;20039;-69
2023/06/28 12:20:03;;;;;;;1.63;0.93;;;;;;;;;;5097400;28;20016;-70
2023/06/28 12:22:37;;;;;;;1.00;1.00;;;;;;;;;;5094877;28;20366;-69
2023/06/28 12:25:02;;;;;;;0.50;0.50;;;;;;;;;;5099006;28;20058;-69
2023/06/28 12:27:27;;;;;;;1.20;1.08;;;;;;;;;;5105698;28;20032;-70
2023/06/28 12:29:53;;;;;;;0.60;0.60;;;;;;;;;;5096994;28;20024;-69
2023/06/28 12:32:22;;;;;;;0.90;0.82;;;;;;;;;;5099860;28;20444;-69
2023/06/28 12:34:49;;;;;;;1.30;1.20;;;;;;;;;;5097009;28;20067;-69
2023/06/28 12:37:14;;;;;;;2.60;1.65;;;;;;;;;;5089032;28;20028;-68
2023/06/28 12:39:43;;;;;;;1.40;1.13;;;;;;;;;;5088283;28;20035;-69
2023/06/28 12:42:09;;;;;;;0.85;0.73;;;;;;;;;;5088181;28;20044;-68
2023/06/28 12:44:51;;;;;;;1.95;1.30;;;;;;;;;;5087927;28;20029;-69
2023/06/28 12:47:17;;;;;;;2.88;1.27;;;;;;;;;;5069939;28;20040;-68
2023/06/28 12:49:44;;;;;;;0.60;0.60;;;;;;;;;;5088141;28;20032;-68
2023/06/28 12:52:09;;;;;;;0.40;0.40;;;;;;;;;;5088202;28;20034;-69
2023/06/28 12:54:35;;;;;;;0.45;0.45;;;;;;;;;;5088182;28;20111;-69
2023/06/28 12:57:03;;;;;;;0.52;0.52;;;;;;;;;;5088066;28;20535;-69
2023/06/28 12:59:28;;;;;;;0.80;0.80;;;;;;;;;;5087796;28;20471;-69
2023/06/28 13:01:53;;;;;;;1.88;1.30;;;;;;;;;;5087989;28;20028;-69
2023/06/28 13:04:19;;;;;;;1.65;0.90;;;;;;;;;;5069965;28;20491;-72
2023/06/28 13:06:44;;;;;;;0.60;0.60;;;;;;;;;;5088213;28;20032;-69
2023/06/28 13:09:10;;;;;;;0.40;0.40;;;;;;;;;;5087877;28;20379;-69
2023/06/28 13:11:35;;;;;;;1.25;1.15;;;;;;;;;;5087946;28;20055;-69
2023/06/28 13:14:01;;;;;;;0.40;0.40;;;;;;;;;;5087598;28;20032;-70
2023/06/28 13:16:26;;;;;;;0.70;0.70;;;;;;;;;;5072342;28;20193;-70
2023/06/28 13:18:52;;;;;;;0.38;0.38;;;;;;;;;;5091144;28;20024;-70
2023/06/28 13:21:17;;;;;;;0.90;0.90;;;;;;;;;;5091414;28;20470;-70
2023/06/28 13:23:43;;;;;;;2.05;1.58;;;;;;;;;;5091414;28;20028;-69
2023/06/28 13:26:08;;;;;;;0.45;0.45;;;;;;;;;;5072990;28;20047;-70
2023/06/28 13:28:33;;;;;;;4.05;2.13;;;;;;;;;;5090795;28;20061;-69
2023/06/28 13:30:59;;;;;;;0.40;0.40;;;;;;;;;;5091227;28;20039;-70
2023/06/28 13:33:25;;;;;;;0.40;0.40;;;;;;;;;;5090896;28;20123;-73
2023/06/28 13:35:51;;;;;;;6.25;1.95;;;;;;;;;;5090917;28;20024;-71
2023/06/28 13:38:16;;;;;;;1.80;1.35;;;;;;;;;;5091016;28;20118;-71
2023/06/28 13:40:41;;;;;;;0.30;0.30;;;;;;;;;;5090950;28;20063;-69
2023/06/28 13:43:08;;;;;;;1.10;1.00;;;;;;;;;;5091230;28;20498;-70
2023/06/28 13:45:33;;;;;;;1.13;0.52;;;;;;;;;;5092518;28;20032;-68
2023/06/28 13:47:59;;;;;;;7.05;1.00;;;;;;;;;;5091566;28;20526;-69
2023/06/28 13:50:24;;;;;;;2.80;2.38;;;;;;;;;;5090974;28;20044;-69
2023/06/28 13:52:50;;;;;;;3.30;1.17;;;;;;;;;;5091306;28;20028;-69
2023/06/28 13:55:15;;;;;;;0.40;0.40;;;;;;;;;;5092800;28;20653;-71
2023/06/28 13:57:41;;;;;;;2.90;1.70;;;;;;;;;;5093163;28;20032;-69
2023/06/28 14:00:07;;;;;;;2.55;1.33;;;;;;;;;;5096607;28;20085;-68
2023/06/28 14:02:32;;;;;;;0.77;0.73;;;;;;;;;;5083364;28;20047;-69
2023/06/28 14:04:57;;;;;;;2.80;1.15;;;;;;;;;;5080254;28;20028;-68
2023/06/28 14:07:23;;;;;;;0.90;0.85;;;;;;;;;;5094674;28;20032;-67
2023/06/28 14:09:48;;;;;;;0.80;0.80;;;;;;;;;;5093396;28;20044;-67
2023/06/28 14:12:14;;;;;;;0.32;0.32;;;;;;;;;;5078648;28;20028;-72
2023/06/28 14:14:40;;;;;;;1.95;1.02;;;;;;;;;;5079773;28;20063;-70
2023/06/28 14:17:06;;;;;;;1.00;0.90;;;;;;;;;;5089473;28;20048;-68
2023/06/28 14:19:31;;;;;;;1.05;0.95;;;;;;;;;;5087662;28;20023;-68
2023/06/28 14:21:57;;;;;;;1.13;1.02;;;;;;;;;;5095094;28;20123;-69
2023/06/28 14:24:22;;;;;;;1.42;1.15;;;;;;;;;;5094482;28;20328;-69
2023/06/28 14:26:50;;;;;;;2.05;1.30;;;;;;;;;;5088820;28;20035;-68
2023/06/28 14:29:15;;;;;;;2.47;1.73;;;;;;;;;;5086339;28;20032;-68
2023/06/28 14:31:41;;;;;;;4.70;1.92;;;;;;;;;;5096857;28;20031;-68
2023/06/28 14:34:06;;;;;;;2.90;1.40;;;;;;;;;;5101314;28;20038;-69
2023/06/28 14:36:32;;;;;;;1.88;1.77;;;;;;;;;;5075472;28;20024;-69
2023/06/28 14:38:57;;;;;;;5.38;1.20;;;;;;;;;;5091184;28;20486;-70